Time;durP1;ratioP1;P1;durP2;ratioP2;P2;SDS_P1;SDS_P2;PMS_P1;PMS_P2;Temp;Humidity;BMP_temperature;BMP_pressure;BME280_temperature;BME280_humidity;BME280_pressure;Samples;Min_cycle;Max_cycle;Signal;HPM_P1;HPM_P2
2022/05/19 00:01:04;;;;;;;1.10;1.10;;;;;;;;;;5108812;27;20287;-63
2022/05/19 00:03:51;;;;;;;1.13;1.13;;;;;;;;;;5115562;27;20221;-62
2022/05/19 00:06:39;;;;;;;1.23;0.90;;;;;;;;;;5113247;27;20279;-63
2022/05/19 00:09:26;;;;;;;1.17;1.17;;;;;;;;;;5110021;27;20295;-62
2022/05/19 00:12:16;;;;;;;1.07;1.07;;;;;;;;;;5109595;27;20755;-63
2022/05/19 00:15:04;;;;;;;1.40;1.40;;;;;;;;;;5108679;27;20283;-63
2022/05/19 00:17:51;;;;;;;1.20;1.20;;;;;;;;;;5107876;27;20206;-63
2022/05/19 00:20:38;;;;;;;1.60;1.50;;;;;;;;;;5112857;27;20209;-63
2022/05/19 00:23:27;;;;;;;1.30;1.30;;;;;;;;;;5113978;27;20315;-63
2022/05/19 00:26:14;;;;;;;1.37;1.30;;;;;;;;;;5115236;27;20723;-62
2022/05/19 00:29:01;;;;;;;1.23;1.23;;;;;;;;;;5117334;27;20209;-63
2022/05/19 00:31:48;;;;;;;1.27;1.17;;;;;;;;;;5119634;27;20277;-63
2022/05/19 00:34:35;;;;;;;1.23;1.23;;;;;;;;;;5113349;27;20607;-61
2022/05/19 00:37:22;;;;;;;2.03;1.10;;;;;;;;;;5111543;27;20999;-63
2022/05/19 00:40:11;;;;;;;1.20;1.10;;;;;;;;;;5108081;27;20321;-62
2022/05/19 00:42:58;;;;;;;1.00;1.00;;;;;;;;;;5106708;27;20307;-63
2022/05/19 00:45:54;;;;;;;1.30;1.20;;;;;;;;;;5110816;27;20317;-63
2022/05/19 00:48:46;;;;;;;1.10;1.10;;;;;;;;;;5109098;27;20293;-62
2022/05/19 00:51:37;;;;;;;1.20;1.20;;;;;;;;;;5110751;27;20207;-63
2022/05/19 00:54:29;;;;;;;1.40;1.30;;;;;;;;;;5116937;27;20301;-62
2022/05/19 00:57:21;;;;;;;1.00;1.00;;;;;;;;;;5112148;27;20208;-63
2022/05/19 01:00:11;;;;;;;1.13;1.13;;;;;;;;;;5114110;27;20288;-63
2022/05/19 01:03:00;;;;;;;1.20;1.20;;;;;;;;;;5113817;27;20699;-57
2022/05/19 01:05:51;;;;;;;1.30;1.20;;;;;;;;;;5110351;27;20342;-57
2022/05/19 01:08:43;;;;;;;1.50;1.40;;;;;;;;;;5117427;27;20312;-58
2022/05/19 01:11:30;;;;;;;1.10;1.10;;;;;;;;;;5110184;27;20216;-57
2022/05/19 01:14:19;;;;;;;2.30;1.37;;;;;;;;;;5106807;27;20203;-57
2022/05/19 01:17:07;;;;;;;1.10;1.10;;;;;;;;;;5107935;27;20288;-58
2022/05/19 01:19:58;;;;;;;1.10;1.10;;;;;;;;;;5114767;27;20330;-57
2022/05/19 01:22:53;;;;;;;1.10;1.10;;;;;;;;;;5108823;27;20232;-57
2022/05/19 01:25:51;;;;;;;1.20;1.20;;;;;;;;;;5108473;27;20341;-57
2022/05/19 01:28:40;;;;;;;1.23;1.13;;;;;;;;;;5111828;27;20218;-57
2022/05/19 01:31:32;;;;;;;1.40;1.30;;;;;;;;;;5110043;27;20213;-57
2022/05/19 01:34:21;;;;;;;1.30;1.30;;;;;;;;;;5112507;27;20696;-57
2022/05/19 01:37:08;;;;;;;1.20;1.10;;;;;;;;;;5111604;27;20243;-58
2022/05/19 01:39:59;;;;;;;1.60;1.33;;;;;;;;;;5110886;27;20676;-57
2022/05/19 01:42:55;;;;;;;1.67;1.50;;;;;;;;;;5112725;27;20315;-57
2022/05/19 01:45:56;;;;;;;1.10;1.10;;;;;;;;;;5114472;27;20697;-57
2022/05/19 01:48:49;;;;;;;1.00;1.00;;;;;;;;;;5110340;27;20675;-57
2022/05/19 01:51:41;;;;;;;1.00;1.00;;;;;;;;;;5114532;27;20213;-57
2022/05/19 01:54:35;;;;;;;1.17;1.17;;;;;;;;;;5113043;27;20265;-56
2022/05/19 01:57:27;;;;;;;1.20;1.20;;;;;;;;;;5117229;27;20719;-57
2022/05/19 02:00:19;;;;;;;1.23;1.23;;;;;;;;;;5112643;27;20282;-57
2022/05/19 02:03:13;;;;;;;1.13;1.13;;;;;;;;;;5109764;27;20227;-57
2022/05/19 02:06:10;;;;;;;1.13;1.13;;;;;;;;;;5110838;27;20279;-57
2022/05/19 02:09:00;;;;;;;1.27;1.20;;;;;;;;;;5111391;27;20274;-57
2022/05/19 02:11:51;;;;;;;1.33;1.13;;;;;;;;;;5114017;27;20217;-57
2022/05/19 02:14:41;;;;;;;1.20;1.20;;;;;;;;;;5115096;27;20212;-57
2022/05/19 02:17:31;;;;;;;1.23;1.13;;;;;;;;;;5115232;27;20274;-57
2022/05/19 02:20:24;;;;;;;1.30;1.20;;;;;;;;;;5106454;27;20692;-57
2022/05/19 02:23:12;;;;;;;1.40;1.30;;;;;;;;;;5109609;27;20229;-59
2022/05/19 02:25:59;;;;;;;1.27;1.27;;;;;;;;;;5108464;27;20212;-57
2022/05/19 02:28:50;;;;;;;1.30;1.20;;;;;;;;;;5107786;27;20207;-57
2022/05/19 02:31:42;;;;;;;1.73;1.63;;;;;;;;;;5112464;27;20288;-57
2022/05/19 02:34:29;;;;;;;1.30;1.20;;;;;;;;;;5108922;27;20733;-58
2022/05/19 02:37:17;;;;;;;1.00;1.00;;;;;;;;;;5114872;27;20275;-57
2022/05/19 02:40:06;;;;;;;1.07;1.07;;;;;;;;;;5107702;27;20209;-57
2022/05/19 02:42:53;;;;;;;1.77;1.30;;;;;;;;;;5112836;27;20384;-57
2022/05/19 02:45:41;;;;;;;1.20;1.20;;;;;;;;;;5109859;27;20274;-56
2022/05/19 02:48:28;;;;;;;1.43;1.43;;;;;;;;;;5115459;27;20215;-57
2022/05/19 02:51:15;;;;;;;1.33;1.23;;;;;;;;;;5113794;27;20288;-57
2022/05/19 02:54:03;;;;;;;1.20;1.20;;;;;;;;;;5106861;27;20302;-57
2022/05/19 02:56:50;;;;;;;1.10;1.10;;;;;;;;;;5112142;27;20678;-57
2022/05/19 02:59:37;;;;;;;1.10;1.10;;;;;;;;;;5106033;27;20263;-58
2022/05/19 03:02:24;;;;;;;1.00;1.00;;;;;;;;;;5110037;27;20284;-57
2022/05/19 03:05:14;;;;;;;1.30;1.30;;;;;;;;;;5110120;27;20292;-57
2022/05/19 03:08:01;;;;;;;1.17;1.17;;;;;;;;;;5108693;27;20236;-57
2022/05/19 03:10:49;;;;;;;1.20;1.20;;;;;;;;;;5103915;28;20295;-57
2022/05/19 03:13:36;;;;;;;1.17;1.17;;;;;;;;;;5111816;28;20887;-58
2022/05/19 03:16:23;;;;;;;1.00;1.00;;;;;;;;;;5112859;28;20297;-57
2022/05/19 03:19:10;;;;;;;1.17;1.17;;;;;;;;;;5109427;28;20338;-57
2022/05/19 03:21:57;;;;;;;1.23;1.13;;;;;;;;;;5112269;28;20207;-57
2022/05/19 03:24:44;;;;;;;1.30;1.20;;;;;;;;;;5117172;28;20268;-57
2022/05/19 03:27:32;;;;;;;1.10;1.10;;;;;;;;;;5109358;28;21123;-57
2022/05/19 03:30:19;;;;;;;1.13;1.13;;;;;;;;;;5111210;28;20287;-57
2022/05/19 03:33:07;;;;;;;1.00;1.00;;;;;;;;;;5107702;28;20328;-57
2022/05/19 03:35:58;;;;;;;1.10;1.10;;;;;;;;;;5109097;28;20208;-57
2022/05/19 03:38:44;;;;;;;1.50;1.40;;;;;;;;;;5105043;28;20311;-57
2022/05/19 03:41:31;;;;;;;1.00;1.00;;;;;;;;;;5108463;28;20347;-57
2022/05/19 03:44:20;;;;;;;1.20;1.20;;;;;;;;;;5109449;28;20270;-57
2022/05/19 03:47:07;;;;;;;1.40;1.30;;;;;;;;;;5108484;28;20330;-57
2022/05/19 03:49:54;;;;;;;1.00;1.00;;;;;;;;;;5113949;28;20287;-57
2022/05/19 03:52:42;;;;;;;1.27;1.27;;;;;;;;;;5113807;28;20586;-57
2022/05/19 03:55:29;;;;;;;0.90;0.90;;;;;;;;;;5110803;28;20237;-58
2022/05/19 03:58:17;;;;;;;1.30;1.20;;;;;;;;;;5113970;28;20342;-57
2022/05/19 04:01:06;;;;;;;1.03;1.03;;;;;;;;;;5116337;28;20267;-57
2022/05/19 04:03:53;;;;;;;1.00;1.00;;;;;;;;;;5109185;28;20711;-57
2022/05/19 04:06:40;;;;;;;1.17;1.17;;;;;;;;;;5110103;28;20205;-58
2022/05/19 04:09:27;;;;;;;1.10;1.10;;;;;;;;;;5106023;28;20648;-57
2022/05/19 04:12:14;;;;;;;1.07;1.07;;;;;;;;;;5109634;28;20237;-58
2022/05/19 04:15:03;;;;;;;1.00;1.00;;;;;;;;;;5111662;28;20233;-58
2022/05/19 04:17:51;;;;;;;1.17;1.17;;;;;;;;;;5105265;28;20289;-57
2022/05/19 04:20:38;;;;;;;1.17;1.17;;;;;;;;;;5106322;28;20238;-57
2022/05/19 04:23:25;;;;;;;0.90;0.90;;;;;;;;;;5113523;27;20312;-58
2022/05/19 04:26:12;;;;;;;1.20;1.20;;;;;;;;;;5109421;27;20316;-57
2022/05/19 04:28:58;;;;;;;0.87;0.87;;;;;;;;;;5115871;27;20733;-57
2022/05/19 04:31:45;;;;;;;1.23;1.23;;;;;;;;;;5119902;27;20209;-58
2022/05/19 04:34:34;;;;;;;1.20;1.20;;;;;;;;;;5120610;27;20225;-57
2022/05/19 04:37:20;;;;;;;1.93;1.30;;;;;;;;;;5111525;27;20296;-57
2022/05/19 04:40:09;;;;;;;1.03;1.03;;;;;;;;;;5112324;27;20269;-57
2022/05/19 04:42:56;;;;;;;1.30;1.20;;;;;;;;;;5107394;27;20211;-58
2022/05/19 04:45:43;;;;;;;1.10;1.10;;;;;;;;;;5113361;27;20233;-57
2022/05/19 04:48:29;;;;;;;1.17;1.17;;;;;;;;;;5109764;27;20365;-57
2022/05/19 04:51:18;;;;;;;1.00;1.00;;;;;;;;;;5108209;27;20741;-57
2022/05/19 04:54:05;;;;;;;1.30;1.20;;;;;;;;;;5111219;27;20348;-57
2022/05/19 04:56:52;;;;;;;1.13;1.13;;;;;;;;;;5112854;27;20255;-57
2022/05/19 04:59:39;;;;;;;0.93;0.93;;;;;;;;;;5112321;27;20308;-57
2022/05/19 05:02:26;;;;;;;1.00;1.00;;;;;;;;;;5116043;27;20290;-57
2022/05/19 05:05:14;;;;;;;0.97;0.97;;;;;;;;;;5116212;27;20636;-57
2022/05/19 05:08:02;;;;;;;1.10;1.10;;;;;;;;;;5117485;27;20695;-57
2022/05/19 05:10:49;;;;;;;0.80;0.80;;;;;;;;;;5108837;27;20210;-57
2022/05/19 05:13:36;;;;;;;1.83;1.00;;;;;;;;;;5111557;27;20660;-58
2022/05/19 05:16:23;;;;;;;1.20;1.10;;;;;;;;;;5113296;27;20251;-57
2022/05/19 05:19:10;;;;;;;0.90;0.90;;;;;;;;;;5109744;27;20239;-57
2022/05/19 05:21:58;;;;;;;0.90;0.90;;;;;;;;;;5114849;27;20666;-58
2022/05/19 05:24:47;;;;;;;1.37;1.00;;;;;;;;;;5110981;27;20226;-57
2022/05/19 05:27:34;;;;;;;0.90;0.90;;;;;;;;;;5109681;27;20603;-57
2022/05/19 05:30:21;;;;;;;1.20;1.20;;;;;;;;;;5118279;27;20704;-57
2022/05/19 05:33:10;;;;;;;1.10;1.10;;;;;;;;;;5114152;27;20299;-57
2022/05/19 05:35:57;;;;;;;1.10;1.00;;;;;;;;;;5112151;27;20612;-57
2022/05/19 05:38:44;;;;;;;0.83;0.83;;;;;;;;;;5108996;27;20282;-57
2022/05/19 05:41:32;;;;;;;1.00;1.00;;;;;;;;;;5118952;27;20287;-58
2022/05/19 05:44:19;;;;;;;1.20;1.10;;;;;;;;;;5114240;27;20235;-57
2022/05/19 05:47:06;;;;;;;0.90;0.90;;;;;;;;;;5105332;27;20292;-58
2022/05/19 05:49:53;;;;;;;1.23;1.13;;;;;;;;;;5111652;27;20251;-58
2022/05/19 05:52:40;;;;;;;1.13;1.10;;;;;;;;;;5108097;27;20744;-57
2022/05/19 05:55:27;;;;;;;0.90;0.90;;;;;;;;;;5109801;27;20619;-57
2022/05/19 05:58:15;;;;;;;0.90;0.90;;;;;;;;;;5107720;27;20913;-57
2022/05/19 06:01:04;;;;;;;1.60;1.20;;;;;;;;;;5111406;27;20201;-57
2022/05/19 06:03:51;;;;;;;0.90;0.90;;;;;;;;;;5109402;27;22151;-57
2022/05/19 06:06:38;;;;;;;1.10;1.10;;;;;;;;;;5112441;27;20400;-57
2022/05/19 06:09:25;;;;;;;1.17;1.07;;;;;;;;;;5110882;27;20292;-57
2022/05/19 06:12:12;;;;;;;1.20;0.97;;;;;;;;;;5113415;27;20229;-57
2022/05/19 06:15:01;;;;;;;1.00;1.00;;;;;;;;;;5112148;27;20275;-57
2022/05/19 06:17:48;;;;;;;0.97;0.97;;;;;;;;;;5111997;27;20262;-57
2022/05/19 06:20:35;;;;;;;1.10;1.00;;;;;;;;;;5104785;27;20400;-57
2022/05/19 06:23:23;;;;;;;1.07;1.00;;;;;;;;;;5107295;27;20253;-57
2022/05/19 06:26:10;;;;;;;1.00;1.00;;;;;;;;;;5108864;27;20714;-57
2022/05/19 06:28:57;;;;;;;0.97;0.97;;;;;;;;;;5107707;27;20286;-57
2022/05/19 06:31:45;;;;;;;1.20;1.10;;;;;;;;;;5109700;27;20208;-58
2022/05/19 06:34:32;;;;;;;1.07;1.03;;;;;;;;;;5108261;27;20671;-58
2022/05/19 06:37:19;;;;;;;1.20;1.10;;;;;;;;;;5108266;27;20216;-57
2022/05/19 06:40:09;;;;;;;1.02;1.02;;;;;;;;;;5112721;27;20203;-57
2022/05/19 06:42:57;;;;;;;0.95;0.95;;;;;;;;;;5112755;27;20285;-58
2022/05/19 06:45:44;;;;;;;1.10;1.10;;;;;;;;;;5111293;27;20341;-58
2022/05/19 06:48:32;;;;;;;1.00;1.00;;;;;;;;;;5113378;27;20205;-58
2022/05/19 06:51:19;;;;;;;1.35;1.00;;;;;;;;;;5114405;27;20750;-58
2022/05/19 06:54:07;;;;;;;1.25;1.25;;;;;;;;;;5107357;27;20922;-56
2022/05/19 06:56:54;;;;;;;1.05;1.05;;;;;;;;;;5111188;27;20282;-56
2022/05/19 06:59:41;;;;;;;0.82;0.82;;;;;;;;;;5106552;27;20256;-55
2022/05/19 07:02:28;;;;;;;1.15;1.10;;;;;;;;;;5109473;27;20277;-55
2022/05/19 07:05:19;;;;;;;1.10;1.10;;;;;;;;;;5112236;27;20248;-55
2022/05/19 07:08:07;;;;;;;1.35;1.30;;;;;;;;;;5109014;28;20208;-57
2022/05/19 07:10:54;;;;;;;1.23;1.13;;;;;;;;;;5113961;28;20198;-56
2022/05/19 07:13:41;;;;;;;1.23;1.23;;;;;;;;;;5109760;28;20303;-56
2022/05/19 07:16:28;;;;;;;1.00;1.00;;;;;;;;;;5112634;28;20233;-56
2022/05/19 07:22:22;;;;;;;0.95;0.95;;;;;;;;;;5113977;28;20819;-57
2022/05/19 07:25:11;;;;;;;0.90;0.90;;;;;;;;;;5113412;28;20649;-56
2022/05/19 07:27:58;;;;;;;1.05;1.05;;;;;;;;;;5104299;28;20248;-57
2022/05/19 07:30:46;;;;;;;1.35;1.00;;;;;;;;;;5105655;28;20279;-57
2022/05/19 07:33:36;;;;;;;1.23;1.23;;;;;;;;;;5107968;28;20335;-57
2022/05/19 07:36:22;;;;;;;1.20;1.20;;;;;;;;;;5108618;28;20193;-56
2022/05/19 07:39:12;;;;;;;1.15;1.15;;;;;;;;;;5110851;28;20962;-56
2022/05/19 07:41:59;;;;;;;1.42;1.33;;;;;;;;;;5105683;28;20218;-56
2022/05/19 07:44:46;;;;;;;1.15;1.15;;;;;;;;;;5110118;28;20296;-57
2022/05/19 07:47:33;;;;;;;1.30;1.30;;;;;;;;;;5106861;28;20914;-57
2022/05/19 07:50:21;;;;;;;1.42;1.33;;;;;;;;;;5109657;28;20269;-57
2022/05/19 07:53:08;;;;;;;1.20;1.20;;;;;;;;;;5106399;28;20314;-57
2022/05/19 07:55:56;;;;;;;1.70;1.60;;;;;;;;;;5114464;27;20252;-58
2022/05/19 07:58:44;;;;;;;1.30;1.30;;;;;;;;;;5120696;27;20612;-58
2022/05/19 08:01:31;;;;;;;1.50;1.40;;;;;;;;;;5116092;27;20229;-58
2022/05/19 08:04:20;;;;;;;1.50;1.50;;;;;;;;;;5113933;27;20689;-57
2022/05/19 08:07:07;;;;;;;1.63;1.52;;;;;;;;;;5109747;27;20210;-58
2022/05/19 08:16:05;;;;;;;1.38;1.38;;;;;;;;;;5113802;27;20202;-55
2022/05/19 08:18:52;;;;;;;2.35;1.60;;;;;;;;;;5111261;27;20313;-55
2022/05/19 08:21:39;;;;;;;1.90;1.80;;;;;;;;;;5112168;27;20412;-55
2022/05/19 08:24:26;;;;;;;1.58;1.55;;;;;;;;;;5113146;27;20729;-56
2022/05/19 08:27:13;;;;;;;1.60;1.60;;;;;;;;;;5115197;27;20241;-55
2022/05/19 08:30:01;;;;;;;1.70;1.60;;;;;;;;;;5114862;27;20711;-55
2022/05/19 08:32:48;;;;;;;1.90;1.80;;;;;;;;;;5121055;27;20586;-56
2022/05/19 08:35:35;;;;;;;1.70;1.60;;;;;;;;;;5119386;27;20278;-55
2022/05/19 08:38:23;;;;;;;1.83;1.65;;;;;;;;;;5107826;27;20297;-55
2022/05/19 08:41:26;;;;;;;1.25;1.25;;;;;;;;;;5106262;27;20279;-55
2022/05/19 08:44:18;;;;;;;1.65;1.63;;;;;;;;;;5106140;27;20227;-56
2022/05/19 08:47:09;;;;;;;1.50;1.50;;;;;;;;;;5109934;27;20197;-56
2022/05/19 08:49:59;;;;;;;1.65;1.55;;;;;;;;;;5107355;27;20324;-56
2022/05/19 08:52:49;;;;;;;1.80;1.77;;;;;;;;;;5112798;27;20218;-55
2022/05/19 08:55:36;;;;;;;1.65;1.65;;;;;;;;;;5105441;27;20720;-57
2022/05/19 08:58:36;;;;;;;1.65;1.65;;;;;;;;;;5109042;27;20297;-56
2022/05/19 09:01:30;;;;;;;1.65;1.55;;;;;;;;;;5108870;27;20220;-56
2022/05/19 09:04:34;;;;;;;1.65;1.58;;;;;;;;;;5108711;27;20290;-55
2022/05/19 09:10:51;;;;;;;1.77;1.67;;;;;;;;;;5111519;27;20752;-56
2022/05/19 09:13:42;;;;;;;1.90;1.80;;;;;;;;;;5106020;27;20200;-56
2022/05/19 09:16:31;;;;;;;2.05;1.95;;;;;;;;;;5110930;27;20198;-56
2022/05/19 09:19:24;;;;;;;2.15;2.00;;;;;;;;;;5110273;27;20751;-56
2022/05/19 09:22:14;;;;;;;1.38;1.38;;;;;;;;;;5113536;27;20203;-56
2022/05/19 09:25:05;;;;;;;1.65;1.55;;;;;;;;;;5106325;27;20844;-56
2022/05/19 09:27:52;;;;;;;1.75;1.73;;;;;;;;;;5110866;27;20346;-56
2022/05/19 09:30:42;;;;;;;2.03;1.80;;;;;;;;;;5107226;27;20642;-57
2022/05/19 09:33:32;;;;;;;1.90;1.80;;;;;;;;;;5109355;27;20202;-57
2022/05/19 09:36:20;;;;;;;1.75;1.65;;;;;;;;;;5110989;27;20342;-57
2022/05/19 09:39:13;;;;;;;1.55;1.45;;;;;;;;;;5112732;27;20649;-57
2022/05/19 09:42:06;;;;;;;1.92;1.83;;;;;;;;;;5112632;27;20204;-57
2022/05/19 09:44:56;;;;;;;2.08;1.98;;;;;;;;;;5108343;27;20234;-56
2022/05/19 09:47:45;;;;;;;1.77;1.75;;;;;;;;;;5109507;27;20206;-57
2022/05/19 09:50:38;;;;;;;1.83;1.73;;;;;;;;;;5108602;27;20618;-56
2022/05/19 09:53:27;;;;;;;2.28;1.90;;;;;;;;;;5109777;27;20228;-56
2022/05/19 09:56:18;;;;;;;1.63;1.63;;;;;;;;;;5111621;27;20280;-57
2022/05/19 09:59:13;;;;;;;1.98;1.88;;;;;;;;;;5110678;27;20559;-56
2022/05/19 10:02:12;;;;;;;1.77;1.63;;;;;;;;;;5109447;27;20195;-57
2022/05/19 10:05:02;;;;;;;1.70;1.60;;;;;;;;;;5112918;27;20289;-57
2022/05/19 10:07:52;;;;;;;1.90;1.80;;;;;;;;;;5103819;27;20241;-57
2022/05/19 10:10:47;;;;;;;1.90;1.80;;;;;;;;;;5113317;27;20559;-56
2022/05/19 10:13:40;;;;;;;1.90;1.80;;;;;;;;;;5110945;27;20673;-57
2022/05/19 10:16:36;;;;;;;1.83;1.73;;;;;;;;;;5113429;27;20852;-57
2022/05/19 10:19:35;;;;;;;2.00;1.90;;;;;;;;;;5112334;27;20655;-57
2022/05/19 10:22:46;;;;;;;1.58;1.58;;;;;;;;;;5110222;27;20217;-56
2022/05/19 10:25:49;;;;;;;1.80;1.70;;;;;;;;;;5106913;27;20227;-57
2022/05/19 10:32:20;;;;;;;1.98;1.83;;;;;;;;;;5108502;27;20212;-57
2022/05/19 10:35:15;;;;;;;1.88;1.77;;;;;;;;;;5110959;27;20195;-57
2022/05/19 10:38:21;;;;;;;1.50;1.50;;;;;;;;;;5104114;27;20238;-57
2022/05/19 10:41:20;;;;;;;2.95;2.03;;;;;;;;;;5107501;27;20210;-57
2022/05/19 10:44:36;;;;;;;1.67;1.60;;;;;;;;;;5113141;27;20199;-57
2022/05/19 10:47:35;;;;;;;1.75;1.65;;;;;;;;;;5107715;27;20204;-57
2022/05/19 10:50:30;;;;;;;2.45;1.73;;;;;;;;;;5108394;27;20201;-57
2022/05/19 10:53:39;;;;;;;1.77;1.67;;;;;;;;;;5110056;27;20250;-57
2022/05/19 10:56:43;;;;;;;1.75;1.65;;;;;;;;;;5109825;27;20208;-56
2022/05/19 10:59:45;;;;;;;2.03;1.60;;;;;;;;;;5107708;27;20204;-56
2022/05/19 11:03:02;;;;;;;1.88;1.77;;;;;;;;;;5104964;27;20209;-56
2022/05/19 11:05:58;;;;;;;2.05;1.95;;;;;;;;;;5110069;27;20225;-57
2022/05/19 11:08:57;;;;;;;2.47;2.00;;;;;;;;;;5104724;28;20199;-56
2022/05/19 11:11:56;;;;;;;1.67;1.58;;;;;;;;;;5106535;28;20577;-56
2022/05/19 11:14:53;;;;;;;1.70;1.60;;;;;;;;;;5107229;28;20302;-60
2022/05/19 11:17:50;;;;;;;1.90;1.80;;;;;;;;;;5097504;28;20718;-55
2022/05/19 11:20:44;;;;;;;1.83;1.73;;;;;;;;;;5106050;28;20235;-55
2022/05/19 11:23:44;;;;;;;1.50;1.40;;;;;;;;;;5110579;28;20206;-56
2022/05/19 11:26:39;;;;;;;3.08;1.83;;;;;;;;;;5106593;28;20227;-56
2022/05/19 11:29:32;;;;;;;1.80;1.70;;;;;;;;;;5106284;28;20218;-56
2022/05/19 11:32:23;;;;;;;1.55;1.55;;;;;;;;;;5115514;27;20214;-56
2022/05/19 11:35:15;;;;;;;1.67;1.58;;;;;;;;;;5115657;27;20295;-57
2022/05/19 11:38:06;;;;;;;1.80;1.70;;;;;;;;;;5112766;27;20309;-56
2022/05/19 11:40:59;;;;;;;1.63;1.52;;;;;;;;;;5110022;27;20207;-56
2022/05/19 11:43:51;;;;;;;1.90;1.80;;;;;;;;;;5114383;27;20264;-56
2022/05/19 11:46:47;;;;;;;1.95;1.85;;;;;;;;;;5113309;27;20235;-56
2022/05/19 11:55:58;;;;;;;1.90;1.80;;;;;;;;;;5121276;27;20194;-57
2022/05/19 11:58:45;;;;;;;2.00;1.90;;;;;;;;;;5118072;27;20219;-56
2022/05/19 12:01:38;;;;;;;1.75;1.65;;;;;;;;;;5111818;27;20212;-55
2022/05/19 12:04:29;;;;;;;1.90;1.80;;;;;;;;;;5115135;27;20247;-56
2022/05/19 12:07:34;;;;;;;1.90;1.80;;;;;;;;;;5119102;27;20251;-56
2022/05/19 12:10:32;;;;;;;1.85;1.77;;;;;;;;;;5112382;27;20261;-57
2022/05/19 12:13:30;;;;;;;1.92;1.83;;;;;;;;;;5116711;27;20290;-57
2022/05/19 12:16:25;;;;;;;1.80;1.70;;;;;;;;;;5113132;27;20210;-56
2022/05/19 12:19:31;;;;;;;2.45;1.90;;;;;;;;;;5108151;27;20211;-57
2022/05/19 12:22:32;;;;;;;1.75;1.65;;;;;;;;;;5114735;27;20331;-58
2022/05/19 12:25:24;;;;;;;1.80;1.70;;;;;;;;;;5114820;27;20207;-57
2022/05/19 12:28:30;;;;;;;1.63;1.52;;;;;;;;;;5114212;27;20204;-57
2022/05/19 12:34:32;;;;;;;1.88;1.77;;;;;;;;;;5116724;27;20672;-57
2022/05/19 12:37:38;;;;;;;2.08;1.98;;;;;;;;;;5115969;27;20193;-56
2022/05/19 12:40:31;;;;;;;2.30;2.20;;;;;;;;;;5114018;27;20240;-57
2022/05/19 12:43:30;;;;;;;1.77;1.75;;;;;;;;;;5111607;27;20207;-57
2022/05/19 12:46:45;;;;;;;1.83;1.73;;;;;;;;;;5111484;27;20321;-56
2022/05/19 12:49:35;;;;;;;2.13;1.90;;;;;;;;;;5112672;27;20287;-57
2022/05/19 12:52:24;;;;;;;2.00;1.90;;;;;;;;;;5109752;27;20209;-57
2022/05/19 12:55:42;;;;;;;2.05;1.95;;;;;;;;;;5111900;27;20220;-56
2022/05/19 12:59:01;;;;;;;2.28;2.08;;;;;;;;;;5110230;27;20250;-57
2022/05/19 13:01:51;;;;;;;2.22;2.13;;;;;;;;;;5114102;27;20220;-56
2022/05/19 13:04:44;;;;;;;2.00;1.90;;;;;;;;;;5111961;27;20292;-57
2022/05/19 13:07:36;;;;;;;2.58;2.38;;;;;;;;;;5117816;27;20225;-56
2022/05/19 13:10:26;;;;;;;2.25;2.15;;;;;;;;;;5113734;27;20236;-56
2022/05/19 13:13:24;;;;;;;2.20;2.10;;;;;;;;;;5106445;27;20292;-56
2022/05/19 13:16:14;;;;;;;2.35;2.25;;;;;;;;;;5113228;27;20669;-57
2022/05/19 13:19:05;;;;;;;2.20;2.10;;;;;;;;;;5110736;27;20847;-56
2022/05/19 13:22:01;;;;;;;2.35;2.22;;;;;;;;;;5114601;27;20250;-56
2022/05/19 13:24:48;;;;;;;2.00;1.90;;;;;;;;;;5111196;27;20215;-56
2022/05/19 13:30:46;;;;;;;2.47;2.38;;;;;;;;;;5112633;27;20206;-56
2022/05/19 13:33:40;;;;;;;2.28;2.17;;;;;;;;;;5107541;27;20209;-56
2022/05/19 13:36:29;;;;;;;2.35;2.25;;;;;;;;;;5115443;27;20797;-56
2022/05/19 13:39:19;;;;;;;2.83;2.60;;;;;;;;;;5116495;27;20675;-56
2022/05/19 13:42:09;;;;;;;2.55;2.38;;;;;;;;;;5124830;27;20208;-57
2022/05/19 13:44:56;;;;;;;2.50;2.30;;;;;;;;;;5114627;27;20237;-56
2022/05/19 13:47:45;;;;;;;2.45;2.35;;;;;;;;;;5112563;27;20268;-56
2022/05/19 13:50:32;;;;;;;2.45;2.35;;;;;;;;;;5115682;27;20242;-56
2022/05/19 13:53:21;;;;;;;2.38;2.28;;;;;;;;;;5112206;27;20225;-56
2022/05/19 13:56:08;;;;;;;2.30;2.20;;;;;;;;;;5117394;27;20717;-56
2022/05/19 13:58:57;;;;;;;2.20;2.10;;;;;;;;;;5099591;28;20240;-57
2022/05/19 14:01:46;;;;;;;2.22;2.10;;;;;;;;;;5108041;27;20224;-57
2022/05/19 14:04:36;;;;;;;2.28;2.08;;;;;;;;;;5109229;27;20284;-57
2022/05/19 14:07:24;;;;;;;2.10;2.00;;;;;;;;;;5103552;27;20311;-56
2022/05/19 14:10:14;;;;;;;2.40;2.20;;;;;;;;;;5108145;27;20219;-56
2022/05/19 14:13:02;;;;;;;2.38;2.28;;;;;;;;;;5108977;27;20278;-56
2022/05/19 14:15:52;;;;;;;2.45;2.35;;;;;;;;;;5107467;27;20407;-57
2022/05/19 14:18:41;;;;;;;2.22;2.13;;;;;;;;;;5107850;27;20929;-56
2022/05/19 14:21:34;;;;;;;2.45;2.35;;;;;;;;;;5110641;27;20245;-57
2022/05/19 14:24:21;;;;;;;2.67;2.50;;;;;;;;;;5112696;27;20206;-57
2022/05/19 14:27:08;;;;;;;2.60;2.40;;;;;;;;;;5109486;27;20683;-56
2022/05/19 14:29:55;;;;;;;2.80;2.67;;;;;;;;;;5115537;27;20793;-56
2022/05/19 14:32:53;;;;;;;2.30;2.20;;;;;;;;;;5114389;27;20271;-57
2022/05/19 14:35:49;;;;;;;2.63;2.42;;;;;;;;;;5109199;27;20340;-56
2022/05/19 14:38:43;;;;;;;2.42;2.33;;;;;;;;;;5111643;27;20201;-57
2022/05/19 14:44:40;;;;;;;2.60;2.40;;;;;;;;;;5119226;27;20208;-56
2022/05/19 14:47:35;;;;;;;2.40;2.30;;;;;;;;;;5117176;27;20236;-56
2022/05/19 14:50:24;;;;;;;2.30;2.20;;;;;;;;;;5118170;27;20673;-58
2022/05/19 14:53:14;;;;;;;2.40;2.30;;;;;;;;;;5114963;27;20257;-57
2022/05/19 14:56:07;;;;;;;2.60;2.40;;;;;;;;;;5112464;27;20215;-56
2022/05/19 14:58:57;;;;;;;2.50;2.40;;;;;;;;;;5114732;27;20265;-56
2022/05/19 15:01:44;;;;;;;2.90;2.70;;;;;;;;;;5112614;27;20566;-56
2022/05/19 15:04:31;;;;;;;2.60;2.47;;;;;;;;;;5114269;27;20287;-56
2022/05/19 15:07:24;;;;;;;3.35;2.50;;;;;;;;;;5106111;27;20313;-57
2022/05/19 15:10:11;;;;;;;2.70;2.60;;;;;;;;;;5108709;27;20212;-57
2022/05/19 15:13:01;;;;;;;2.70;2.50;;;;;;;;;;5110605;28;20288;-56
2022/05/19 15:15:48;;;;;;;2.40;2.30;;;;;;;;;;5110911;28;20208;-57
2022/05/19 15:18:35;;;;;;;2.55;2.45;;;;;;;;;;5107092;28;20208;-57
2022/05/19 15:21:22;;;;;;;2.70;2.60;;;;;;;;;;5115844;28;20220;-57
2022/05/19 15:24:11;;;;;;;2.73;2.63;;;;;;;;;;5111158;28;20258;-57
2022/05/19 15:27:01;;;;;;;2.75;2.55;;;;;;;;;;5106539;28;20232;-57
2022/05/19 15:29:49;;;;;;;2.75;2.63;;;;;;;;;;5110104;28;20690;-58
2022/05/19 15:32:36;;;;;;;2.60;2.50;;;;;;;;;;5114732;28;20869;-58
2022/05/19 15:35:23;;;;;;;2.70;2.60;;;;;;;;;;5115032;28;20276;-57
2022/05/19 15:38:11;;;;;;;2.80;2.60;;;;;;;;;;5118034;28;20680;-57
2022/05/19 15:40:58;;;;;;;2.70;2.60;;;;;;;;;;5113511;28;20237;-57
2022/05/19 15:43:45;;;;;;;2.77;2.63;;;;;;;;;;5093647;28;20245;-57
2022/05/19 15:46:34;;;;;;;2.40;2.30;;;;;;;;;;5108691;28;20242;-57
2022/05/19 15:49:21;;;;;;;3.30;3.10;;;;;;;;;;5110545;28;20247;-57
2022/05/19 15:52:08;;;;;;;3.03;2.83;;;;;;;;;;5103912;28;20659;-57
2022/05/19 15:54:55;;;;;;;3.10;2.90;;;;;;;;;;5113134;28;20749;-56
2022/05/19 15:57:42;;;;;;;3.00;2.80;;;;;;;;;;5116796;28;20623;-56
2022/05/19 16:00:29;;;;;;;2.70;2.50;;;;;;;;;;5108236;28;20212;-57
2022/05/19 16:03:22;;;;;;;3.30;3.10;;;;;;;;;;5110913;28;20291;-57
2022/05/19 16:06:12;;;;;;;2.80;2.70;;;;;;;;;;5111465;28;20240;-56
2022/05/19 16:08:59;;;;;;;2.93;2.83;;;;;;;;;;5109775;28;20242;-56
2022/05/19 16:11:46;;;;;;;3.27;3.07;;;;;;;;;;5110859;28;20295;-57
2022/05/19 16:14:33;;;;;;;3.33;3.13;;;;;;;;;;5108743;28;20209;-57
2022/05/19 16:17:20;;;;;;;2.80;2.70;;;;;;;;;;5105929;27;20308;-56
2022/05/19 16:20:11;;;;;;;3.10;2.90;;;;;;;;;;5111803;27;20594;-57
2022/05/19 16:22:59;;;;;;;3.27;3.07;;;;;;;;;;5111621;27;20293;-57
2022/05/19 16:25:48;;;;;;;3.03;2.93;;;;;;;;;;5106446;27;20320;-56
2022/05/19 16:28:35;;;;;;;2.93;2.73;;;;;;;;;;5114455;27;20231;-56
2022/05/19 16:31:22;;;;;;;3.47;3.20;;;;;;;;;;5114278;27;20259;-57
2022/05/19 16:34:09;;;;;;;3.40;3.20;;;;;;;;;;5118321;27;20219;-57
2022/05/19 16:37:01;;;;;;;3.50;3.30;;;;;;;;;;5112845;27;20644;-56
2022/05/19 16:39:48;;;;;;;3.40;3.20;;;;;;;;;;5119237;27;20221;-56
2022/05/19 16:42:35;;;;;;;3.60;3.40;;;;;;;;;;5115412;27;20219;-56
2022/05/19 16:45:25;;;;;;;3.53;3.33;;;;;;;;;;5103342;27;20241;-56
2022/05/19 16:48:12;;;;;;;3.50;3.20;;;;;;;;;;5115709;27;20274;-57
2022/05/19 16:50:59;;;;;;;3.87;3.57;;;;;;;;;;5114330;27;20308;-57
2022/05/19 16:59:57;;;;;;;4.37;4.17;;;;;;;;;;5113963;27;20211;-57
2022/05/19 17:02:44;;;;;;;5.03;4.63;;;;;;;;;;5115694;27;20279;-57
2022/05/19 17:05:34;;;;;;;5.50;5.10;;;;;;;;;;5111541;27;20208;-57
2022/05/19 17:08:21;;;;;;;4.50;4.20;;;;;;;;;;5113337;27;21354;-57
2022/05/19 17:11:10;;;;;;;5.90;4.07;;;;;;;;;;5112269;27;20284;-57
2022/05/19 17:13:57;;;;;;;4.40;4.10;;;;;;;;;;5111444;27;20209;-57
2022/05/19 17:16:44;;;;;;;5.20;4.70;;;;;;;;;;5108953;27;20222;-57
2022/05/19 17:19:31;;;;;;;4.90;4.23;;;;;;;;;;5111014;27;20213;-57
2022/05/19 17:22:18;;;;;;;4.27;3.97;;;;;;;;;;5112615;27;20236;-57
2022/05/19 17:25:08;;;;;;;4.57;4.27;;;;;;;;;;5112857;27;20243;-58
2022/05/19 17:27:57;;;;;;;4.97;4.47;;;;;;;;;;5114569;27;20237;-57
2022/05/19 17:30:44;;;;;;;4.77;4.40;;;;;;;;;;5110499;27;20273;-56
2022/05/19 17:33:31;;;;;;;4.80;4.40;;;;;;;;;;5108266;27;20205;-57
2022/05/19 17:36:18;;;;;;;4.73;4.30;;;;;;;;;;5108009;27;20215;-57
2022/05/19 17:39:05;;;;;;;4.63;4.33;;;;;;;;;;5108583;27;20235;-57